Time;durP1;ratioP1;P1;durP2;ratioP2;P2;SDS_P1;SDS_P2;PMS_P1;PMS_P2;Temp;Humidity;BMP_temperature;BMP_pressure;BME280_temperature;BME280_humidity;BME280_pressure;Samples;Min_cycle;Max_cycle;Signal;HPM_P1;HPM_P2
2023/08/17 00:00:19;;;;;;;0.77;0.35;;;28.70;59.90;;;;;;10541569;28;20716;-34
2023/08/17 00:05:21;;;;;;;2.13;0.47;;;28.60;60.00;;;;;;10539367;28;20044;-36
2023/08/17 00:10:24;;;;;;;0.50;0.30;;;28.50;59.80;;;;;;10536573;28;20087;-37
2023/08/17 00:15:27;;;;;;;1.05;0.40;;;28.50;60.00;;;;;;10535418;28;20634;-32
2023/08/17 00:20:29;;;;;;;0.63;0.40;;;28.50;60.20;;;;;;10536191;28;20044;-37
2023/08/17 00:25:30;;;;;;;1.27;0.40;;;28.50;60.10;;;;;;10535371;28;20048;-34
2023/08/17 00:30:35;;;;;;;0.95;0.70;;;28.50;60.20;;;;;;10538904;28;20127;-38
2023/08/17 00:35:37;;;;;;;0.80;0.45;;;28.40;60.20;;;;;;10535545;28;20538;-38
2023/08/17 00:40:41;;;;;;;0.82;0.65;;;28.40;60.00;;;;;;10534028;28;20136;-37
2023/08/17 00:45:47;;;;;;;0.98;0.57;;;28.40;60.40;;;;;;10534019;28;20075;-34
2023/08/17 00:50:51;;;;;;;0.80;0.63;;;28.30;60.40;;;;;;10541496;28;20101;-35
2023/08/17 00:55:54;;;;;;;2.13;0.50;;;28.30;60.40;;;;;;10537910;28;20084;-34
2023/08/17 01:01:00;;;;;;;3.05;0.65;;;28.30;60.20;;;;;;10537704;28;20412;-39
2023/08/17 01:06:03;;;;;;;2.05;0.50;;;28.30;60.40;;;;;;10536640;28;20046;-35
2023/08/17 01:11:17;;;;;;;1.33;0.38;;;28.20;60.60;;;;;;10523334;28;20138;-40
2023/08/17 01:16:27;;;;;;;0.60;0.40;;;28.30;60.50;;;;;;10534573;28;20079;-38
2023/08/17 01:21:38;;;;;;;1.50;0.40;;;28.20;60.20;;;;;;10536951;28;20067;-38
2023/08/17 01:26:41;;;;;;;2.13;0.60;;;28.20;60.70;;;;;;10536517;28;20119;-41
2023/08/17 01:31:53;;;;;;;1.08;0.50;;;28.10;60.50;;;;;;10537039;28;20072;-36
2023/08/17 01:37:01;;;;;;;1.42;0.50;;;28.10;60.20;;;;;;10534875;28;20413;-37
2023/08/17 01:42:06;;;;;;;1.23;0.50;;;28.00;60.50;;;;;;10535574;28;20066;-37
2023/08/17 01:47:07;;;;;;;0.70;0.40;;;28.00;60.70;;;;;;10535044;28;20052;-38
2023/08/17 01:52:09;;;;;;;2.25;0.60;;;28.00;60.60;;;;;;10534566;28;20687;-39
2023/08/17 01:57:14;;;;;;;0.80;0.50;;;28.00;60.40;;;;;;10530876;28;20051;-44
2023/08/17 02:02:17;;;;;;;0.88;0.50;;;28.00;60.80;;;;;;10534350;28;20620;-41
2023/08/17 02:07:19;;;;;;;1.02;0.40;;;27.90;60.70;;;;;;10533392;28;20067;-35
2023/08/17 02:12:25;;;;;;;1.00;0.43;;;27.90;60.80;;;;;;10536634;28;20110;-39
2023/08/17 02:17:29;;;;;;;0.63;0.50;;;27.90;60.80;;;;;;10533033;28;20540;-39
2023/08/17 02:22:31;;;;;;;0.82;0.52;;;27.90;60.60;;;;;;10530626;28;20055;-39
2023/08/17 02:27:34;;;;;;;0.50;0.30;;;27.80;60.40;;;;;;10531407;28;20493;-36
2023/08/17 02:32:36;;;;;;;1.02;0.47;;;27.80;60.70;;;;;;10532288;28;20086;-41
2023/08/17 02:37:38;;;;;;;0.40;0.40;;;27.80;60.80;;;;;;10533218;28;20113;-37
2023/08/17 02:42:41;;;;;;;1.27;0.70;;;27.80;60.80;;;;;;10533728;28;20089;-38
2023/08/17 02:47:43;;;;;;;0.50;0.40;;;27.80;60.90;;;;;;10533489;28;20068;-37
2023/08/17 02:52:45;;;;;;;0.73;0.40;;;27.70;60.50;;;;;;10530242;28;20048;-35
2023/08/17 03:15:31;;;;;;;0.65;0.50;;;27.40;60.90;;;;;;10516215;27;20130;-35
2023/08/17 03:20:32;;;;;;;0.88;0.50;;;27.50;61.10;;;;;;10527139;28;20044;-34
2023/08/17 03:25:35;;;;;;;0.65;0.40;;;27.50;60.90;;;;;;10526079;28;20044;-33
2023/08/17 03:30:38;;;;;;;0.60;0.55;;;27.40;60.80;;;;;;10526697;28;20082;-35
2023/08/17 03:35:40;;;;;;;0.70;0.55;;;27.50;61.80;;;;;;10526261;28;20036;-36
2023/08/17 03:40:41;;;;;;;1.00;0.60;;;27.50;61.10;;;;;;10527011;28;20071;-34
2023/08/17 03:45:45;;;;;;;3.20;0.80;;;27.40;60.90;;;;;;10525052;28;20538;-34
2023/08/17 03:50:47;;;;;;;0.98;0.68;;;27.40;60.90;;;;;;10530444;28;20131;-34
2023/08/17 03:55:49;;;;;;;0.85;0.30;;;27.40;61.20;;;;;;10525718;28;20121;-33
2023/08/17 04:00:52;;;;;;;1.17;0.55;;;27.30;61.10;;;;;;10526554;28;20110;-37
2023/08/17 04:05:54;;;;;;;2.05;0.43;;;27.30;60.80;;;;;;10526493;28;20052;-41
2023/08/17 04:10:56;;;;;;;3.20;0.73;;;27.30;61.10;;;;;;10528350;28;20101;-36
2023/08/17 04:16:02;;;;;;;0.55;0.50;;;27.30;60.90;;;;;;10565693;28;20135;-37
2023/08/17 04:21:05;;;;;;;1.05;0.57;;;27.30;61.10;;;;;;10566056;28;20505;-35
2023/08/17 04:26:07;;;;;;;1.25;0.47;;;27.30;61.00;;;;;;10541537;28;20052;-35
2023/08/17 04:31:11;;;;;;;1.02;0.30;;;27.40;61.10;;;;;;10539821;28;20051;-34
2023/08/17 04:36:12;;;;;;;1.73;0.35;;;27.30;61.10;;;;;;10546408;28;20051;-35
2023/08/17 04:41:14;;;;;;;0.80;0.70;;;27.40;61.20;;;;;;10537376;28;20109;-36
2023/08/17 04:46:20;;;;;;;1.00;0.40;;;27.30;61.20;;;;;;10537505;28;20097;-40
2023/08/17 04:51:22;;;;;;;3.55;0.65;;;27.30;61.20;;;;;;10537342;28;20040;-38
2023/08/17 04:56:24;;;;;;;3.35;0.60;;;27.30;61.30;;;;;;10537085;28;20052;-37
2023/08/17 05:01:27;;;;;;;3.83;0.55;;;27.30;61.20;;;;;;10530505;28;20040;-35
2023/08/17 05:06:29;;;;;;;2.28;0.75;;;27.30;61.20;;;;;;10536631;28;20048;-35
2023/08/17 05:11:31;;;;;;;5.10;0.35;;;27.20;61.20;;;;;;10536354;28;20125;-39
2023/08/17 05:16:34;;;;;;;4.10;0.85;;;27.20;61.20;;;;;;10531878;28;20105;-35
2023/08/17 05:21:36;;;;;;;4.65;0.50;;;27.20;61.20;;;;;;10536671;28;20067;-40
2023/08/17 05:26:38;;;;;;;1.85;0.50;;;27.20;61.80;;;;;;10528368;28;20828;-38
2023/08/17 05:31:41;;;;;;;3.00;0.55;;;27.30;61.20;;;;;;10529702;28;20097;-40
2023/08/17 05:36:44;;;;;;;5.05;0.70;;;27.20;61.20;;;;;;10529414;28;20040;-35
2023/08/17 05:41:45;;;;;;;0.50;0.47;;;27.20;61.10;;;;;;10538914;28;20060;-36
2023/08/17 05:46:49;;;;;;;2.40;0.90;;;27.30;61.10;;;;;;10529183;28;20060;-36
2023/08/17 05:51:50;;;;;;;3.35;0.60;;;27.20;61.00;;;;;;10530120;28;20519;-37
2023/08/17 05:56:52;;;;;;;1.90;0.70;;;27.20;60.90;;;;;;10517225;28;20473;-35
2023/08/17 06:01:55;;;;;;;1.90;0.60;;;27.20;61.40;;;;;;10521777;28;20036;-35
2023/08/17 06:06:57;;;;;;;2.40;0.75;;;27.20;60.80;;;;;;10517932;28;20040;-35
2023/08/17 06:11:59;;;;;;;1.63;0.60;;;27.20;60.80;;;;;;10525935;28;20759;-37
2023/08/17 06:17:04;;;;;;;1.90;0.55;;;27.20;60.90;;;;;;10531216;28;20451;-37
2023/08/17 06:22:06;;;;;;;4.57;0.50;;;27.20;60.80;;;;;;10529214;28;20488;-41
2023/08/17 06:27:08;;;;;;;3.17;0.70;;;27.20;60.90;;;;;;10528195;28;20071;-36
2023/08/17 06:32:11;;;;;;;2.80;0.80;;;27.20;60.70;;;;;;10529086;28;20071;-41
2023/08/17 06:37:13;;;;;;;2.13;0.75;;;27.20;60.60;;;;;;10525990;28;20100;-41
2023/08/17 06:42:15;;;;;;;3.22;0.93;;;27.20;60.70;;;;;;10529846;28;20036;-41
2023/08/17 06:47:20;;;;;;;4.95;0.60;;;27.20;60.50;;;;;;10521970;28;20167;-39
2023/08/17 06:52:21;;;;;;;2.72;0.80;;;27.20;60.50;;;;;;10533899;28;20102;-35
2023/08/17 06:57:23;;;;;;;2.75;0.90;;;27.20;60.60;;;;;;10529250;28;20098;-35
2023/08/17 07:02:27;;;;;;;5.88;0.95;;;27.20;60.60;;;;;;10521239;28;20039;-40
2023/08/17 07:07:30;;;;;;;3.63;0.88;;;27.20;60.70;;;;;;10522518;28;20046;-39
2023/08/17 07:12:34;;;;;;;2.15;0.80;;;27.10;61.20;;;;;;10526531;28;20056;-40
2023/08/17 07:17:37;;;;;;;2.00;0.50;;;27.20;60.70;;;;;;10525271;28;20106;-41
2023/08/17 07:22:41;;;;;;;3.88;0.82;;;27.20;60.70;;;;;;10520160;28;20044;-37
2023/08/17 07:27:45;;;;;;;3.35;1.35;;;27.10;60.80;;;;;;10512312;28;20044;-42
2023/08/17 07:32:50;;;;;;;4.53;0.88;;;27.20;60.70;;;;;;10522860;28;20086;-35
2023/08/17 07:37:52;;;;;;;3.53;0.95;;;27.10;60.60;;;;;;10526093;28;20125;-34
2023/08/17 07:42:54;;;;;;;1.52;0.68;;;27.20;60.30;;;;;;10527777;28;20052;-42
2023/08/17 07:47:57;;;;;;;1.90;0.70;;;27.20;60.10;;;;;;10530869;28;20546;-38
2023/08/17 07:52:59;;;;;;;2.10;0.77;;;27.20;60.00;;;;;;10524727;28;20059;-41
2023/08/17 07:58:05;;;;;;;4.78;0.88;;;27.30;60.00;;;;;;10524608;28;20044;-43
2023/08/17 08:03:10;;;;;;;2.75;0.70;;;27.30;59.80;;;;;;10529970;28;20097;-39
2023/08/17 08:08:14;;;;;;;2.80;0.80;;;27.40;59.70;;;;;;10536605;28;20048;-37
2023/08/17 08:13:16;;;;;;;1.95;0.90;;;27.40;59.60;;;;;;10525536;28;20056;-38
2023/08/17 08:18:19;;;;;;;3.17;0.80;;;27.50;59.50;;;;;;10534798;28;20581;-36
2023/08/17 08:23:21;;;;;;;1.15;0.50;;;27.50;59.40;;;;;;10534318;28;20047;-38
2023/08/17 08:28:23;;;;;;;1.60;0.77;;;27.60;59.30;;;;;;10533017;28;20036;-32
2023/08/17 08:33:26;;;;;;;1.83;0.65;;;27.60;59.30;;;;;;10538091;28;20058;-37
2023/08/17 08:38:28;;;;;;;3.05;0.98;;;27.60;59.20;;;;;;10535462;28;20083;-36
2023/08/17 08:43:31;;;;;;;1.48;0.50;;;27.70;59.10;;;;;;10545499;28;20076;-35
2023/08/17 08:48:36;;;;;;;1.67;0.60;;;27.60;59.10;;;;;;10547136;28;20089;-42
2023/08/17 08:53:39;;;;;;;1.92;0.50;;;27.70;59.10;;;;;;10537521;28;20083;-37
2023/08/17 08:58:42;;;;;;;3.38;0.80;;;27.70;59.00;;;;;;10530975;28;20576;-39
2023/08/17 09:03:48;;;;;;;2.10;0.52;;;27.50;59.40;;;;;;10516782;28;20075;-41
2023/08/17 09:08:51;;;;;;;1.77;0.60;;;27.70;59.20;;;;;;10539726;28;20044;-37
2023/08/17 09:13:54;;;;;;;3.13;0.90;;;27.80;59.10;;;;;;10535989;28;20055;-37
2023/08/17 09:18:57;;;;;;;3.85;0.85;;;27.70;59.20;;;;;;10524966;28;20120;-38
2023/08/17 09:23:59;;;;;;;5.15;0.82;;;27.70;59.20;;;;;;10538647;28;20640;-44
2023/08/17 09:29:02;;;;;;;1.45;0.47;;;27.80;59.40;;;;;;10538212;28;20079;-39
2023/08/17 09:34:07;;;;;;;1.42;0.65;;;27.70;59.40;;;;;;10552720;28;20048;-38
2023/08/17 09:39:09;;;;;;;2.08;0.73;;;27.80;59.30;;;;;;10535342;28;20050;-34
2023/08/17 09:44:12;;;;;;;0.93;0.50;;;27.80;59.50;;;;;;10546817;28;20078;-37
2023/08/17 09:49:15;;;;;;;2.83;0.80;;;27.90;59.40;;;;;;10545530;28;20083;-34
2023/08/17 09:54:26;;;;;;;1.65;0.40;;;28.10;58.90;;;;;;10536355;28;20083;-40
2023/08/17 09:59:28;;;;;;;1.95;0.65;;;27.90;59.00;;;;;;10547385;28;20052;-42
2023/08/17 10:04:35;;;;;;;4.32;0.57;;;27.90;59.10;;;;;;10534847;28;20425;-39
2023/08/17 10:09:41;;;;;;;0.77;0.60;;;27.90;59.10;;;;;;10541539;28;20442;-37
2023/08/17 10:14:50;;;;;;;2.65;0.60;;;28.00;59.10;;;;;;10541620;28;20071;-37
2023/08/17 10:19:57;;;;;;;5.32;0.70;;;28.00;59.10;;;;;;10541173;28;20077;-38
2023/08/17 10:25:01;;;;;;;3.65;0.52;;;28.00;59.10;;;;;;10524346;28;20128;-37
2023/08/17 10:30:03;;;;;;;1.65;0.63;;;28.20;58.80;;;;;;10537846;28;20097;-38
2023/08/17 10:35:07;;;;;;;2.30;0.80;;;28.10;58.90;;;;;;10522301;28;20071;-34
2023/08/17 10:40:11;;;;;;;1.20;0.60;;;28.20;59.00;;;;;;10523813;28;20048;-38
2023/08/17 10:45:31;;;;;;;1.20;0.60;;;28.00;59.00;;;;;;10522923;28;20044;-36
2023/08/17 10:50:35;;;;;;;3.10;0.50;;;28.30;58.50;;;;;;10529273;28;20131;-37
2023/08/17 10:55:39;;;;;;;2.83;0.45;;;28.20;59.00;;;;;;10535117;28;20480;-39
2023/08/17 11:00:42;;;;;;;0.98;0.55;;;28.20;58.70;;;;;;10529987;28;20048;-42
2023/08/17 11:05:49;;;;;;;4.45;0.63;;;28.20;59.30;;;;;;10534949;28;20079;-39
2023/08/17 11:10:59;;;;;;;2.75;0.50;;;28.30;58.70;;;;;;10527612;28;20566;-37
2023/08/17 11:16:02;;;;;;;1.87;0.50;;;28.30;58.70;;;;;;10443868;28;20111;-37
2023/08/17 11:21:07;;;;;;;1.88;0.40;;;28.50;58.50;;;;;;10434657;28;20084;-38
2023/08/17 11:26:10;;;;;;;1.65;0.80;;;28.50;58.50;;;;;;10444359;28;20045;-36
2023/08/17 11:31:14;;;;;;;1.63;0.50;;;28.80;58.10;;;;;;10456465;28;20053;-35
2023/08/17 11:36:17;;;;;;;2.38;0.90;;;29.00;57.70;;;;;;10458576;28;20068;-39
2023/08/17 11:41:20;;;;;;;2.00;0.93;;;28.60;58.40;;;;;;10451854;28;20136;-36
2023/08/17 11:46:22;;;;;;;2.75;0.90;;;28.90;58.40;;;;;;10458682;28;20076;-38
2023/08/17 11:51:31;;;;;;;1.13;0.50;;;28.70;58.20;;;;;;10456412;28;20045;-39
2023/08/17 11:56:32;;;;;;;1.20;0.60;;;28.80;58.40;;;;;;10464721;28;20136;-36
2023/08/17 12:01:34;;;;;;;1.52;0.73;;;29.00;58.00;;;;;;10456372;28;20071;-41
2023/08/17 12:06:44;;;;;;;4.03;0.98;;;29.00;57.90;;;;;;10456610;28;20107;-35
2023/08/17 12:11:47;;;;;;;2.03;0.70;;;29.00;58.00;;;;;;10474714;28;20538;-41
2023/08/17 12:16:49;;;;;;;7.32;0.73;;;28.90;58.00;;;;;;10537602;28;20223;-39
2023/08/17 12:21:53;;;;;;;3.08;0.50;;;29.30;57.30;;;;;;10543939;28;20134;-36
2023/08/17 12:26:58;;;;;;;3.80;0.85;;;29.20;57.40;;;;;;10541851;28;20044;-36
2023/08/17 12:32:01;;;;;;;0.80;0.60;;;29.10;57.90;;;;;;10544190;28;20051;-40
2023/08/17 12:37:05;;;;;;;0.80;0.50;;;29.20;57.70;;;;;;10545387;28;20139;-36
2023/08/17 12:42:07;;;;;;;5.38;0.75;;;29.20;57.90;;;;;;10551967;28;20109;-39
2023/08/17 12:47:08;;;;;;;5.13;1.13;;;29.20;57.80;;;;;;10535130;28;20072;-38
2023/08/17 12:52:12;;;;;;;3.28;0.77;;;29.10;58.00;;;;;;10529297;28;20054;-35
2023/08/17 12:57:13;;;;;;;2.15;0.60;;;29.10;58.10;;;;;;10537988;28;20044;-34
2023/08/17 13:02:15;;;;;;;1.38;0.60;;;29.50;57.30;;;;;;10524191;28;20084;-32
2023/08/17 13:07:18;;;;;;;2.72;0.73;;;30.00;56.80;;;;;;10525591;28;20052;-33
2023/08/17 13:12:20;;;;;;;1.25;0.68;;;30.20;57.20;;;;;;10524135;28;20086;-36
2023/08/17 13:17:23;;;;;;;7.57;1.08;;;30.40;56.80;;;;;;10530789;28;20079;-36
2023/08/17 13:22:28;;;;;;;4.55;0.80;;;30.70;56.70;;;;;;10541785;28;20048;-38
2023/08/17 13:27:30;;;;;;;1.50;0.70;;;30.40;56.10;;;;;;10522579;28;20044;-37
2023/08/17 13:32:32;;;;;;;1.40;0.68;;;30.30;56.80;;;;;;10546497;28;20048;-37
2023/08/17 13:37:37;;;;;;;2.22;0.70;;;30.10;57.10;;;;;;10551672;28;20129;-32
2023/08/17 13:42:39;;;;;;;2.90;0.52;;;30.10;57.10;;;;;;10538653;28;20097;-35
2023/08/17 13:47:41;;;;;;;0.93;0.60;;;30.30;57.00;;;;;;10529312;28;20139;-39
2023/08/17 13:52:44;;;;;;;1.75;0.65;;;30.00;57.40;;;;;;10532375;28;20071;-35
2023/08/17 13:57:46;;;;;;;1.35;0.82;;;30.00;57.30;;;;;;10544869;28;20079;-38
2023/08/17 14:02:48;;;;;;;0.68;0.60;;;30.00;57.40;;;;;;10541772;28;20401;-37
2023/08/17 14:07:51;;;;;;;1.00;0.57;;;30.00;57.60;;;;;;10545978;28;20657;-38
2023/08/17 14:12:53;;;;;;;2.78;0.70;;;30.00;57.50;;;;;;10543966;28;20048;-38
2023/08/17 14:17:54;;;;;;;1.45;0.80;;;30.00;57.50;;;;;;10538610;28;20125;-35
2023/08/17 14:22:58;;;;;;;1.70;0.80;;;30.00;57.60;;;;;;10541158;28;20131;-38
2023/08/17 14:28:00;;;;;;;4.20;0.70;;;30.00;57.50;;;;;;10535773;28;20068;-36
2023/08/17 14:33:02;;;;;;;1.33;0.80;;;30.00;58.50;;;;;;10535227;28;20067;-36
2023/08/17 14:38:05;;;;;;;1.45;0.73;;;29.90;58.00;;;;;;10527775;28;20147;-38
2023/08/17 14:43:07;;;;;;;2.03;1.05;;;30.00;57.90;;;;;;10526942;28;20048;-45
2023/08/17 14:48:11;;;;;;;1.85;0.70;;;30.00;58.10;;;;;;10537166;28;20484;-44
2023/08/17 14:53:15;;;;;;;2.03;0.70;;;30.00;57.80;;;;;;10529384;28;20575;-44
2023/08/17 14:58:18;;;;;;;0.80;0.50;;;30.00;57.80;;;;;;10527487;28;20079;-31
2023/08/17 15:03:20;;;;;;;1.42;0.90;;;30.00;57.90;;;;;;10529099;28;20060;-36
2023/08/17 15:08:23;;;;;;;2.03;0.90;;;30.00;58.00;;;;;;10520575;28;20036;-35
2023/08/17 15:13:25;;;;;;;1.48;0.73;;;29.90;58.10;;;;;;10519076;28;20117;-38
2023/08/17 15:18:29;;;;;;;3.38;1.10;;;29.90;58.10;;;;;;10516494;28;20052;-34
2023/08/17 15:23:33;;;;;;;3.10;0.80;;;29.90;58.20;;;;;;10519762;28;20155;-38
2023/08/17 15:28:35;;;;;;;3.03;1.02;;;29.90;58.10;;;;;;10520584;28;20135;-38
2023/08/17 15:33:37;;;;;;;3.13;0.98;;;29.90;58.40;;;;;;10523433;28;20734;-33
2023/08/17 15:38:40;;;;;;;4.60;1.65;;;29.80;58.40;;;;;;10524104;28;20553;-33
2023/08/17 15:43:42;;;;;;;1.77;0.88;;;29.70;58.50;;;;;;10534013;28;20572;-34
2023/08/17 15:48:44;;;;;;;2.72;0.98;;;29.60;58.70;;;;;;10533893;28;20076;-39
2023/08/17 15:53:47;;;;;;;2.63;1.02;;;29.70;59.30;;;;;;10536693;28;20163;-33
2023/08/17 15:58:49;;;;;;;8.88;1.27;;;29.70;58.70;;;;;;10528486;28;20060;-37
2023/08/17 16:03:51;;;;;;;4.32;1.17;;;29.70;58.70;;;;;;10536741;28;20168;-36
2023/08/17 16:08:55;;;;;;;3.67;1.30;;;29.70;59.00;;;;;;10537801;28;20142;-34
2023/08/17 16:13:57;;;;;;;5.00;1.80;;;29.60;59.10;;;;;;10538893;28;20090;-36
2023/08/17 16:19:01;;;;;;;4.00;1.27;;;29.60;59.40;;;;;;10529507;28;20067;-36
2023/08/17 16:24:04;;;;;;;8.25;1.90;;;29.60;59.40;;;;;;10543430;28;20488;-35
2023/08/17 16:29:08;;;;;;;2.55;1.45;;;29.50;60.00;;;;;;10532954;28;20043;-38
2023/08/17 16:34:10;;;;;;;4.30;1.00;;;29.50;59.70;;;;;;10546690;28;20051;-39
2023/08/17 16:39:13;;;;;;;3.58;1.27;;;29.50;59.90;;;;;;10525402;28;20119;-34
2023/08/17 16:44:15;;;;;;;5.00;1.67;;;29.50;59.80;;;;;;10529035;28;20048;-35
2023/08/17 16:49:17;;;;;;;9.07;1.63;;;29.50;59.80;;;;;;10537124;28;20130;-34
2023/08/17 16:54:20;;;;;;;8.82;1.80;;;29.50;59.90;;;;;;10534115;28;20416;-39
2023/08/17 16:59:22;;;;;;;8.40;1.70;;;29.40;59.90;;;;;;10527380;28;20661;-36
2023/08/17 17:04:24;;;;;;;9.70;1.60;;;29.50;59.90;;;;;;10542044;28;20043;-38
2023/08/17 17:09:28;;;;;;;8.38;1.63;;;29.50;59.90;;;;;;10548129;28;20076;-31
2023/08/17 17:14:30;;;;;;;5.78;1.33;;;29.40;60.00;;;;;;10518804;28;20059;-35
2023/08/17 17:19:32;;;;;;;6.10;1.52;;;29.40;60.00;;;;;;10541649;28;20052;-33
2023/08/17 17:24:35;;;;;;;3.88;1.73;;;29.50;60.20;;;;;;10532196;28;20040;-38
2023/08/17 17:29:37;;;;;;;4.13;2.03;;;29.30;60.30;;;;;;10534074;28;20044;-30
2023/08/17 17:34:41;;;;;;;3.45;1.70;;;29.30;60.20;;;;;;10530605;28;20079;-41
2023/08/17 17:39:44;;;;;;;5.63;1.83;;;29.30;60.30;;;;;;10525817;28;20124;-42
2023/08/17 17:44:46;;;;;;;3.85;1.73;;;29.30;60.40;;;;;;10516378;28;20044;-34
2023/08/17 17:49:47;;;;;;;6.57;2.92;;;29.30;60.50;;;;;;10524322;28;20146;-35
2023/08/17 17:54:51;;;;;;;7.93;3.08;;;29.30;60.60;;;;;;10552631;28;20132;-39
2023/08/17 17:59:54;;;;;;;4.13;2.60;;;29.30;60.80;;;;;;10525760;28;20075;-36
2023/08/17 18:04:56;;;;;;;3.55;2.33;;;29.20;60.80;;;;;;10534374;28;20052;-33
2023/08/17 18:10:00;;;;;;;4.88;2.47;;;29.30;61.40;;;;;;10534033;28;20273;-34
2023/08/17 18:15:02;;;;;;;5.72;2.38;;;29.20;63.20;;;;;;10512511;28;20142;-41
2023/08/17 18:20:04;;;;;;;4.03;2.38;;;29.20;61.50;;;;;;10529949;28;20409;-38
2023/08/17 18:25:09;;;;;;;3.17;2.20;;;29.20;61.60;;;;;;10538680;28;20044;-36
2023/08/17 18:30:11;;;;;;;4.30;1.80;;;29.20;61.70;;;;;;10531355;28;20115;-33
2023/08/17 18:35:15;;;;;;;4.90;2.33;;;29.20;61.80;;;;;;10540641;28;20058;-33
2023/08/17 18:40:19;;;;;;;2.97;1.80;;;29.10;61.90;;;;;;10526676;28;20138;-34
2023/08/17 18:45:22;;;;;;;3.25;1.98;;;29.10;62.00;;;;;;10525798;28;20036;-34
2023/08/17 18:50:26;;;;;;;6.30;1.50;;;29.10;62.00;;;;;;10525490;28;20507;-36
2023/08/17 18:55:30;;;;;;;4.13;1.60;;;29.10;62.10;;;;;;10525367;28;20048;-40
2023/08/17 19:00:32;;;;;;;7.70;1.90;;;29.10;62.10;;;;;;10524695;28;20121;-37
2023/08/17 19:05:33;;;;;;;3.28;1.98;;;29.00;62.30;;;;;;10518471;28;20170;-36
2023/08/17 19:10:37;;;;;;;1.60;1.13;;;29.00;62.30;;;;;;10534430;28;20072;-38
2023/08/17 19:15:39;;;;;;;3.30;1.25;;;29.00;62.40;;;;;;10523221;28;20117;-35
2023/08/17 19:20:41;;;;;;;2.95;1.27;;;29.00;62.70;;;;;;10523545;28;20106;-39
2023/08/17 19:25:45;;;;;;;2.67;1.10;;;29.00;62.50;;;;;;10534130;28;20056;-42
2023/08/17 19:30:47;;;;;;;3.38;1.42;;;29.00;62.40;;;;;;10530085;28;20059;-35
2023/08/17 19:35:49;;;;;;;3.33;1.40;;;29.00;62.40;;;;;;10540406;28;20514;-36
2023/08/17 19:40:52;;;;;;;4.53;1.17;;;29.00;62.60;;;;;;10534503;28;20093;-37
2023/08/17 19:45:54;;;;;;;2.72;1.50;;;28.90;62.30;;;;;;10536015;28;20135;-40
2023/08/17 19:50:56;;;;;;;2.15;1.40;;;28.90;62.30;;;;;;10522304;28;20078;-38
2023/08/17 19:55:59;;;;;;;2.05;1.38;;;28.90;62.30;;;;;;10535864;28;20079;-36
2023/08/17 20:01:05;;;;;;;1.70;0.85;;;28.90;62.30;;;;;;10552297;28;20052;-42
2023/08/17 20:06:07;;;;;;;2.35;1.15;;;28.80;62.30;;;;;;10563498;28;20142;-38
2023/08/17 20:11:11;;;;;;;3.00;0.90;;;28.80;62.30;;;;;;10549036;28;20112;-38
2023/08/17 20:16:13;;;;;;;3.15;1.33;;;28.80;62.30;;;;;;10544279;28;20087;-43
2023/08/17 20:21:15;;;;;;;1.77;1.00;;;28.80;62.30;;;;;;10535339;28;20043;-34
2023/08/17 20:26:18;;;;;;;2.60;1.20;;;28.80;62.30;;;;;;10539401;28;20044;-41
2023/08/17 20:31:20;;;;;;;1.70;1.00;;;28.70;62.30;;;;;;10525539;28;20439;-33
2023/08/17 20:36:24;;;;;;;1.48;1.13;;;28.70;62.30;;;;;;10547263;28;20078;-34
2023/08/17 20:41:27;;;;;;;1.58;1.13;;;28.70;62.40;;;;;;10531967;28;20169;-37
2023/08/17 20:46:29;;;;;;;2.42;0.98;;;28.70;62.40;;;;;;10515186;28;20147;-33
2023/08/17 20:51:31;;;;;;;5.63;1.00;;;28.70;62.40;;;;;;10540169;28;20044;-35
2023/08/17 20:56:35;;;;;;;2.00;1.30;;;28.60;62.50;;;;;;10529259;28;20052;-34
2023/08/17 21:01:36;;;;;;;4.07;1.02;;;28.60;62.60;;;;;;10526842;28;20101;-36
2023/08/17 21:06:41;;;;;;;2.92;1.70;;;28.60;62.70;;;;;;10544945;28;20075;-36
2023/08/17 21:11:44;;;;;;;3.10;1.65;;;28.60;62.90;;;;;;10533070;28;20056;-33
2023/08/17 21:16:46;;;;;;;1.30;1.10;;;28.50;63.00;;;;;;10531652;28;20109;-36
2023/08/17 21:21:47;;;;;;;2.30;1.10;;;28.50;63.00;;;;;;10535282;28;20048;-36
2023/08/17 21:26:51;;;;;;;2.10;1.27;;;28.50;63.10;;;;;;10519286;28;20083;-33
2023/08/17 21:31:52;;;;;;;4.53;1.50;;;28.50;63.10;;;;;;10517325;28;20036;-39
2023/08/17 21:36:54;;;;;;;3.50;1.40;;;28.50;63.20;;;;;;10539750;28;20084;-35
2023/08/17 21:41:57;;;;;;;4.00;1.50;;;28.40;63.20;;;;;;10508551;28;20494;-35
2023/08/17 21:46:59;;;;;;;3.15;1.50;;;28.40;63.20;;;;;;10512120;28;20075;-35
2023/08/17 21:52:01;;;;;;;4.53;1.58;;;28.40;63.20;;;;;;10535911;28;20271;-40
2023/08/17 21:57:04;;;;;;;5.10;1.20;;;28.40;63.20;;;;;;10525301;28;20139;-40
2023/08/17 22:02:06;;;;;;;5.05;1.60;;;28.40;63.30;;;;;;10544946;28;20225;-38
2023/08/17 22:07:08;;;;;;;3.25;1.23;;;28.40;63.40;;;;;;10537560;28;20044;-41
2023/08/17 22:12:11;;;;;;;2.10;1.00;;;28.30;63.30;;;;;;10519630;28;20576;-39
2023/08/17 22:17:13;;;;;;;1.65;1.05;;;28.30;63.30;;;;;;10532503;28;20734;-36
2023/08/17 22:22:15;;;;;;;3.58;1.35;;;28.30;63.40;;;;;;10543357;28;20055;-34
2023/08/17 22:27:21;;;;;;;1.38;1.13;;;28.30;63.50;;;;;;10528535;28;20076;-39
2023/08/17 22:32:23;;;;;;;2.17;1.02;;;28.30;63.60;;;;;;10544984;28;20568;-38
2023/08/17 22:37:25;;;;;;;3.33;1.40;;;28.30;63.70;;;;;;10533775;28;20080;-39
2023/08/17 22:42:30;;;;;;;2.30;1.33;;;28.30;63.70;;;;;;10535430;28;20048;-35
2023/08/17 22:47:35;;;;;;;2.83;1.52;;;28.30;63.90;;;;;;10533513;28;20051;-38
2023/08/17 22:52:39;;;;;;;5.38;2.28;;;28.20;63.80;;;;;;10537776;28;20044;-33
2023/08/17 22:57:42;;;;;;;2.92;1.70;;;28.20;63.70;;;;;;10525964;28;20138;-40
2023/08/17 23:02:44;;;;;;;2.00;1.20;;;28.10;64.10;;;;;;10535614;28;20077;-36
2023/08/17 23:07:46;;;;;;;3.22;1.42;;;28.20;64.20;;;;;;10535423;28;20138;-33
2023/08/17 23:12:49;;;;;;;5.47;1.60;;;28.20;64.40;;;;;;10528834;28;20084;-34
2023/08/17 23:17:51;;;;;;;5.80;1.67;;;28.10;64.40;;;;;;10527165;28;20040;-40
2023/08/17 23:22:53;;;;;;;3.20;1.77;;;28.10;64.50;;;;;;10527753;28;20168;-34
2023/08/17 23:27:56;;;;;;;3.13;1.50;;;28.10;64.60;;;;;;10535859;28;20476;-42
2023/08/17 23:32:57;;;;;;;1.80;1.50;;;28.10;64.60;;;;;;10542081;28;20082;-36
2023/08/17 23:37:59;;;;;;;2.95;1.80;;;28.10;64.80;;;;;;10546260;28;20139;-39
2023/08/17 23:43:03;;;;;;;2.42;1.33;;;28.10;64.80;;;;;;10539111;28;20216;-38
2023/08/17 23:48:05;;;;;;;3.92;1.77;;;28.10;64.90;;;;;;10540388;28;20068;-34
2023/08/17 23:53:07;;;;;;;3.55;1.40;;;28.00;64.90;;;;;;10546762;28;20075;-36
2023/08/17 23:58:10;;;;;;;1.92;1.45;;;28.00;64.90;;;;;;10539291;28;20080;-36
